createdAt,value
2023-03-21T00:00:22.000Z,11.619140625000002
2023-03-21T00:03:06.000Z,7.4296875000000036
2023-03-21T00:05:50.000Z,7.751953125
2023-03-21T00:08:32.000Z,8.396484375000002
2023-03-21T00:11:15.000Z,8.074218749999995
2023-03-21T00:14:00.000Z,8.718749999999996
2023-03-21T00:16:44.000Z,8.396484375000002
2023-03-21T00:19:29.000Z,8.396484375000002
2023-03-21T00:22:11.000Z,9.041015625000004
2023-03-21T00:24:56.000Z,6.140625
2023-03-21T00:27:38.000Z,8.396484375000002
2023-03-21T00:30:21.000Z,7.751953125
2023-03-21T00:33:04.000Z,7.107421874999997
2023-03-21T00:35:44.000Z,8.074218749999995
2023-03-21T00:38:26.000Z,11.296874999999995
2023-03-21T00:41:08.000Z,10.974609375
2023-03-21T00:43:50.000Z,10.974609375
2023-03-21T00:46:34.000Z,10.330078124999996
2023-03-21T00:49:17.000Z,8.074218749999995
2023-03-21T00:51:59.000Z,10.974609375
2023-03-21T00:54:43.000Z,5.8183593750000036
2023-03-21T00:57:26.000Z,8.396484375000002
2023-03-21T01:00:09.000Z,10.330078124999996
2023-03-21T01:02:53.000Z,7.4296875000000036
2023-03-21T01:05:34.000Z,5.8183593750000036
2023-03-21T01:08:17.000Z,8.074218749999995
2023-03-21T01:10:59.000Z,7.751953125
2023-03-21T01:13:44.000Z,9.041015625000004
2023-03-21T01:16:26.000Z,9.041015625000004
2023-03-21T01:19:08.000Z,7.751953125
2023-03-21T01:21:51.000Z,8.074218749999995
2023-03-21T01:24:33.000Z,8.074218749999995
2023-03-21T01:27:14.000Z,8.718749999999996
2023-03-21T01:29:59.000Z,9.685546874999995
2023-03-21T01:32:42.000Z,5.8183593750000036
2023-03-21T01:35:25.000Z,8.718749999999996
2023-03-21T01:38:05.000Z,10.652343750000004
2023-03-21T01:40:49.000Z,10.330078124999996
2023-03-21T01:43:34.000Z,5.8183593750000036
2023-03-21T01:46:14.000Z,7.751953125
2023-03-21T01:48:57.000Z,8.396484375000002
2023-03-21T01:51:40.000Z,6.140625
2023-03-21T01:54:22.000Z,4.2070312500000036
2023-03-21T01:57:06.000Z,8.396484375000002
2023-03-21T01:59:47.000Z,8.074218749999995
2023-03-21T02:02:31.000Z,8.396484375000002
2023-03-21T02:05:13.000Z,8.074218749999995
2023-03-21T02:07:55.000Z,7.751953125
2023-03-21T02:10:37.000Z,8.396484375000002
2023-03-21T02:13:16.000Z,7.4296875000000036
2023-03-21T02:15:59.000Z,8.074218749999995
2023-03-21T02:18:42.000Z,8.074218749999995
2023-03-21T02:21:33.000Z,6.462890624999995
2023-03-21T02:24:16.000Z,8.718749999999996
2023-03-21T02:26:59.000Z,8.074218749999995
2023-03-21T02:29:43.000Z,8.074218749999995
2023-03-21T02:32:25.000Z,9.041015625000004
2023-03-21T02:35:07.000Z,8.074218749999995
2023-03-21T02:37:51.000Z,8.074218749999995
2023-03-21T02:40:35.000Z,7.751953125
2023-03-21T02:43:17.000Z,7.4296875000000036
2023-03-21T02:45:58.000Z,7.107421874999997
2023-03-21T02:48:41.000Z,8.074218749999995
2023-03-21T02:51:26.000Z,8.074218749999995
2023-03-21T02:54:08.000Z,10.007812500000002
2023-03-21T02:56:52.000Z,6.462890624999995
2023-03-21T02:59:34.000Z,10.007812500000002
2023-03-21T03:02:17.000Z,5.173828125000002
2023-03-21T03:05:01.000Z,9.685546874999995
2023-03-21T03:07:46.000Z,11.296874999999995
2023-03-21T03:10:30.000Z,8.074218749999995
2023-03-21T03:13:13.000Z,7.751953125
2023-03-21T03:15:56.000Z,6.140625
2023-03-21T03:18:41.000Z,8.718749999999996
2023-03-21T03:21:22.000Z,5.8183593750000036
2023-03-21T03:24:03.000Z,6.462890624999995
2023-03-21T03:26:44.000Z,9.685546874999995
2023-03-21T03:29:27.000Z,7.751953125
2023-03-21T03:32:10.000Z,7.751953125
2023-03-21T03:34:53.000Z,7.751953125
2023-03-21T03:37:35.000Z,7.751953125
2023-03-21T03:40:16.000Z,10.007812500000002
2023-03-21T03:42:58.000Z,8.396484375000002
2023-03-21T03:45:43.000Z,10.007812500000002
2023-03-21T03:48:26.000Z,8.074218749999995
2023-03-21T03:51:13.000Z,8.074218749999995
2023-03-21T03:53:55.000Z,10.330078124999996
2023-03-21T03:56:35.000Z,8.074218749999995
2023-03-21T03:59:19.000Z,5.8183593750000036
2023-03-21T04:02:00.000Z,7.751953125
2023-03-21T04:04:45.000Z,9.041015625000004
2023-03-21T04:07:26.000Z,8.074218749999995
2023-03-21T04:10:08.000Z,7.4296875000000036
2023-03-21T04:12:53.000Z,7.751953125
2023-03-21T04:15:37.000Z,7.751953125
2023-03-21T04:18:19.000Z,7.4296875000000036
2023-03-21T04:21:03.000Z,9.685546874999995
2023-03-21T04:23:45.000Z,8.074218749999995
2023-03-21T04:26:27.000Z,8.074218749999995
2023-03-21T04:29:08.000Z,6.785156250000002
2023-03-21T04:31:52.000Z,5.8183593750000036
2023-03-21T04:34:35.000Z,5.496093749999997
2023-03-21T04:37:17.000Z,8.718749999999996
2023-03-21T04:40:00.000Z,6.140625
2023-03-21T04:42:41.000Z,6.462890624999995
2023-03-21T04:45:24.000Z,6.785156250000002
2023-03-21T04:48:06.000Z,8.074218749999995
2023-03-21T04:50:51.000Z,6.140625
2023-03-21T04:53:32.000Z,8.074218749999995
2023-03-21T04:56:15.000Z,9.685546874999995
2023-03-21T04:58:59.000Z,8.396484375000002
2023-03-21T05:01:45.000Z,6.140625
2023-03-21T05:04:26.000Z,5.8183593750000036
2023-03-21T05:07:07.000Z,7.751953125
2023-03-21T05:09:51.000Z,7.4296875000000036
2023-03-21T05:12:35.000Z,8.074218749999995
2023-03-21T05:15:19.000Z,9.685546874999995
2023-03-21T05:18:00.000Z,7.751953125
2023-03-21T05:20:43.000Z,9.36328125
2023-03-21T05:23:26.000Z,6.462890624999995
2023-03-21T05:26:08.000Z,6.462890624999995
2023-03-21T05:28:53.000Z,6.140625
2023-03-21T05:31:35.000Z,8.074218749999995
2023-03-21T05:34:20.000Z,8.074218749999995
2023-03-21T05:37:05.000Z,6.140625
2023-03-21T05:39:48.000Z,6.462890624999995
2023-03-21T05:42:31.000Z,8.718749999999996
2023-03-21T05:45:14.000Z,7.751953125
2023-03-21T05:47:56.000Z,6.462890624999995
2023-03-21T05:50:40.000Z,7.107421874999997
2023-03-21T05:53:26.000Z,8.396484375000002
2023-03-21T05:56:13.000Z,6.140625
2023-03-21T05:58:58.000Z,9.041015625000004
2023-03-21T06:01:42.000Z,10.007812500000002
2023-03-21T06:04:26.000Z,10.330078124999996
2023-03-21T06:07:08.000Z,8.074218749999995
2023-03-21T06:09:50.000Z,8.396484375000002
2023-03-21T06:12:35.000Z,6.785156250000002
2023-03-21T06:15:17.000Z,10.007812500000002
2023-03-21T06:17:57.000Z,8.396484375000002
2023-03-21T06:20:39.000Z,7.751953125
2023-03-21T06:23:21.000Z,8.718749999999996
2023-03-21T06:26:07.000Z,8.074218749999995
2023-03-21T06:28:49.000Z,9.041015625000004
2023-03-21T06:31:32.000Z,8.718749999999996
2023-03-21T06:34:15.000Z,9.041015625000004
2023-03-21T06:36:57.000Z,8.718749999999996
2023-03-21T06:39:41.000Z,9.041015625000004
2023-03-21T06:42:24.000Z,7.4296875000000036
2023-03-21T06:45:07.000Z,9.041015625000004
2023-03-21T06:47:50.000Z,7.4296875000000036
2023-03-21T06:50:32.000Z,9.36328125
2023-03-21T06:53:17.000Z,9.36328125
2023-03-21T06:56:00.000Z,10.652343750000004
2023-03-21T06:58:44.000Z,12.263671875000004
2023-03-21T07:01:27.000Z,8.396484375000002
2023-03-21T07:04:11.000Z,9.685546874999995
2023-03-21T07:06:53.000Z,8.396484375000002
2023-03-21T07:09:36.000Z,10.007812500000002
2023-03-21T07:12:18.000Z,11.941406249999996
2023-03-21T07:15:00.000Z,9.041015625000004
2023-03-21T07:17:44.000Z,10.652343750000004
2023-03-21T07:20:25.000Z,9.685546874999995
2023-03-21T07:23:08.000Z,9.36328125
2023-03-21T07:25:52.000Z,9.36328125
2023-03-21T07:28:34.000Z,10.330078124999996
2023-03-21T07:31:17.000Z,10.330078124999996
2023-03-21T07:33:59.000Z,10.330078124999996
2023-03-21T07:36:42.000Z,9.685546874999995
2023-03-21T07:39:24.000Z,11.296874999999995
2023-03-21T07:42:07.000Z,10.652343750000004
2023-03-21T07:44:49.000Z,9.041015625000004
2023-03-21T07:47:30.000Z,10.007812500000002
2023-03-21T07:50:14.000Z,10.330078124999996
2023-03-21T07:52:58.000Z,10.652343750000004
2023-03-21T07:55:43.000Z,10.652343750000004
2023-03-21T07:58:26.000Z,9.685546874999995
2023-03-21T08:01:08.000Z,10.974609375
2023-03-21T08:03:53.000Z,11.296874999999995
2023-03-21T08:06:36.000Z,10.652343750000004
2023-03-21T08:09:16.000Z,10.974609375
2023-03-21T08:11:59.000Z,10.974609375
2023-03-21T08:14:42.000Z,11.941406249999996
2023-03-21T08:17:26.000Z,10.652343750000004
2023-03-21T08:20:08.000Z,10.974609375
2023-03-21T08:22:52.000Z,11.296874999999995
2023-03-21T08:25:34.000Z,10.974609375
2023-03-21T08:28:18.000Z,9.685546874999995
2023-03-21T08:31:04.000Z,10.974609375
2023-03-21T08:33:47.000Z,9.685546874999995
2023-03-21T08:36:32.000Z,10.652343750000004
2023-03-21T08:39:15.000Z,9.685546874999995
2023-03-21T08:42:00.000Z,13.230468750000002
2023-03-21T08:44:43.000Z,12.5859375
2023-03-21T08:47:25.000Z,11.619140625000002
2023-03-21T08:50:08.000Z,10.974609375
2023-03-21T08:52:52.000Z,11.296874999999995
2023-03-21T08:55:35.000Z,11.941406249999996
2023-03-21T08:58:17.000Z,11.941406249999996
2023-03-21T09:01:00.000Z,12.263671875000004
2023-03-21T09:03:46.000Z,11.619140625000002
2023-03-21T09:06:29.000Z,11.296874999999995
2023-03-21T09:09:10.000Z,12.5859375
2023-03-21T09:11:54.000Z,13.230468750000002
2023-03-21T09:14:37.000Z,10.652343750000004
2023-03-21T09:17:19.000Z,13.874999999999993
2023-03-21T09:20:01.000Z,13.552734374999996
2023-03-21T09:22:45.000Z,12.908203124999995
2023-03-21T09:25:26.000Z,10.974609375
2023-03-21T09:28:07.000Z,13.874999999999993
2023-03-21T09:30:52.000Z,14.519531249999995
2023-03-21T09:33:36.000Z,14.197265625
2023-03-21T09:36:21.000Z,14.519531249999995
2023-03-21T09:39:06.000Z,14.519531249999995
2023-03-21T09:41:53.000Z,14.197265625
2023-03-21T09:44:34.000Z,13.552734374999996
2023-03-21T09:47:17.000Z,14.519531249999995
2023-03-21T09:50:00.000Z,14.197265625
2023-03-21T09:52:46.000Z,14.197265625
2023-03-21T09:55:26.000Z,15.486328124999993
2023-03-21T09:58:09.000Z,15.80859375
2023-03-21T10:00:54.000Z,14.841796875000002
2023-03-21T10:03:36.000Z,16.130859374999996
2023-03-21T10:06:20.000Z,15.80859375
2023-03-21T10:09:03.000Z,16.130859374999996
2023-03-21T10:11:45.000Z,16.130859374999996
2023-03-21T10:14:31.000Z,16.775390624999996
2023-03-21T10:17:15.000Z,16.130859374999996
2023-03-21T10:19:59.000Z,15.80859375
2023-03-21T10:22:45.000Z,15.164062499999996
2023-03-21T10:25:28.000Z,15.486328124999993
2023-03-21T10:28:12.000Z,15.80859375
2023-03-21T10:30:55.000Z,14.841796875000002
2023-03-21T10:33:35.000Z,15.164062499999996
2023-03-21T10:36:18.000Z,15.486328124999993
2023-03-21T10:39:00.000Z,14.841796875000002
2023-03-21T10:41:45.000Z,16.775390624999996
2023-03-21T10:44:27.000Z,13.552734374999996
2023-03-21T10:47:11.000Z,14.197265625
2023-03-21T10:49:58.000Z,13.874999999999993
2023-03-21T10:52:45.000Z,14.197265625
2023-03-21T10:55:26.000Z,14.197265625
2023-03-21T10:58:08.000Z,14.197265625
2023-03-21T11:00:55.000Z,13.874999999999993
2023-03-21T11:03:38.000Z,14.841796875000002
2023-03-21T11:06:20.000Z,15.164062499999996
2023-03-21T11:09:02.000Z,15.80859375
2023-03-21T11:11:45.000Z,15.486328124999993
2023-03-21T11:14:33.000Z,16.130859374999996
2023-03-21T11:17:16.000Z,16.775390624999996
2023-03-21T11:19:58.000Z,16.130859374999996
2023-03-21T11:22:44.000Z,16.775390624999996
2023-03-21T11:25:26.000Z,17.097656249999993
2023-03-21T11:28:08.000Z,16.775390624999996
2023-03-21T11:30:53.000Z,17.097656249999993
2023-03-21T11:33:36.000Z,16.130859374999996
2023-03-21T11:36:22.000Z,16.453125
2023-03-21T11:39:07.000Z,16.775390624999996
2023-03-21T11:41:53.000Z,16.453125
2023-03-21T11:44:37.000Z,15.486328124999993
2023-03-21T11:47:22.000Z,17.419921875
2023-03-21T11:50:06.000Z,18.708984374999993
2023-03-21T11:52:52.000Z,18.386718749999996
2023-03-21T11:55:33.000Z,18.708984374999993
2023-03-21T11:58:17.000Z,18.064453125
2023-03-21T12:01:02.000Z,17.419921875
2023-03-21T12:03:48.000Z,17.742187499999996
2023-03-21T12:06:30.000Z,18.386718749999996
2023-03-21T12:09:16.000Z,19.998046874999996
2023-03-21T12:11:59.000Z,17.742187499999996
2023-03-21T12:14:45.000Z,16.130859374999996
2023-03-21T12:17:31.000Z,17.419921875
2023-03-21T12:20:17.000Z,17.097656249999993
2023-03-21T12:22:57.000Z,16.775390624999996
2023-03-21T12:25:42.000Z,16.453125
2023-03-21T12:28:27.000Z,16.130859374999996
2023-03-21T12:31:12.000Z,17.742187499999996
2023-03-21T12:33:56.000Z,16.130859374999996
2023-03-21T12:36:39.000Z,17.097656249999993
2023-03-21T12:39:25.000Z,18.064453125
2023-03-21T12:42:09.000Z,17.097656249999993
2023-03-21T12:44:55.000Z,17.419921875
2023-03-21T12:47:38.000Z,17.097656249999993
2023-03-21T12:50:23.000Z,17.742187499999996
2023-03-21T12:53:11.000Z,17.419921875
2023-03-21T12:55:54.000Z,16.130859374999996
2023-03-21T12:58:39.000Z,16.775390624999996
2023-03-21T13:01:26.000Z,17.419921875
2023-03-21T13:04:09.000Z,16.453125
2023-03-21T13:06:55.000Z,15.486328124999993
2023-03-21T13:09:37.000Z,17.419921875
2023-03-21T13:12:24.000Z,16.775390624999996
2023-03-21T13:15:09.000Z,18.708984374999993
2023-03-21T13:17:54.000Z,17.742187499999996
2023-03-21T13:20:39.000Z,18.064453125
2023-03-21T13:23:33.000Z,18.064453125
2023-03-21T13:26:17.000Z,17.742187499999996
2023-03-21T13:29:00.000Z,18.708984374999993
2023-03-21T13:31:46.000Z,17.742187499999996
2023-03-21T13:34:33.000Z,18.064453125
2023-03-21T13:37:17.000Z,17.097656249999993
2023-03-21T13:40:04.000Z,17.742187499999996
2023-03-21T13:42:47.000Z,17.097656249999993
2023-03-21T13:45:33.000Z,16.130859374999996
2023-03-21T13:48:17.000Z,18.064453125
2023-03-21T13:51:01.000Z,17.419921875
2023-03-21T13:53:45.000Z,19.67578125
2023-03-21T13:56:31.000Z,17.419921875
2023-03-21T13:59:14.000Z,17.419921875
2023-03-21T14:02:09.000Z,17.419921875
2023-03-21T14:04:54.000Z,16.130859374999996
2023-03-21T14:07:36.000Z,16.775390624999996
2023-03-21T14:10:29.000Z,17.097656249999993
2023-03-21T14:13:13.000Z,15.80859375
2023-03-21T14:16:00.000Z,17.742187499999996
2023-03-21T14:18:47.000Z,16.453125
2023-03-21T14:21:32.000Z,17.419921875
2023-03-21T14:24:17.000Z,16.130859374999996
2023-03-21T14:27:03.000Z,17.097656249999993
2023-03-21T14:29:53.000Z,15.80859375
2023-03-21T14:32:35.000Z,15.80859375
2023-03-21T14:35:17.000Z,16.453125
2023-03-21T14:38:04.000Z,15.80859375
2023-03-21T14:40:47.000Z,18.064453125
2023-03-21T14:43:33.000Z,15.80859375
2023-03-21T14:46:18.000Z,16.775390624999996
2023-03-21T14:49:00.000Z,15.80859375
2023-03-21T14:51:52.000Z,16.130859374999996
2023-03-21T14:54:37.000Z,15.486328124999993
2023-03-21T14:57:22.000Z,16.130859374999996
2023-03-21T15:00:07.000Z,16.775390624999996
2023-03-21T15:02:53.000Z,14.841796875000002
2023-03-21T15:05:37.000Z,16.130859374999996
2023-03-21T15:08:33.000Z,16.775390624999996
2023-03-21T15:11:18.000Z,14.197265625
2023-03-21T15:14:04.000Z,15.486328124999993
2023-03-21T15:16:47.000Z,15.80859375
2023-03-21T15:19:32.000Z,15.80859375
2023-03-21T15:22:17.000Z,14.197265625
2023-03-21T15:25:03.000Z,15.80859375
2023-03-21T15:27:47.000Z,14.197265625
2023-03-21T15:30:32.000Z,15.80859375
2023-03-21T15:33:17.000Z,15.164062499999996
2023-03-21T15:36:02.000Z,15.164062499999996
2023-03-21T15:38:45.000Z,15.80859375
2023-03-21T15:41:31.000Z,17.097656249999993
2023-03-21T15:44:17.000Z,15.486328124999993
2023-03-21T15:47:01.000Z,15.80859375
2023-03-21T15:49:46.000Z,15.164062499999996
2023-03-21T15:52:34.000Z,15.80859375
2023-03-21T15:55:18.000Z,15.164062499999996
2023-03-21T15:58:04.000Z,15.164062499999996
2023-03-21T16:00:46.000Z,15.486328124999993
2023-03-21T16:03:32.000Z,15.164062499999996
2023-03-21T16:06:18.000Z,14.841796875000002
2023-03-21T16:09:00.000Z,15.164062499999996
2023-03-21T16:11:47.000Z,14.197265625
2023-03-21T16:14:32.000Z,12.5859375
2023-03-21T16:17:17.000Z,13.230468750000002
2023-03-21T16:20:01.000Z,13.552734374999996
2023-03-21T16:22:45.000Z,14.197265625
2023-03-21T16:25:27.000Z,13.552734374999996
2023-03-21T16:28:16.000Z,14.841796875000002
2023-03-21T16:31:07.000Z,14.197265625
2023-03-21T16:33:53.000Z,12.908203124999995
2023-03-21T16:36:38.000Z,12.5859375
2023-03-21T16:39:25.000Z,14.841796875000002
2023-03-21T16:42:16.000Z,12.908203124999995
2023-03-21T16:45:08.000Z,12.5859375
2023-03-21T16:47:53.000Z,12.908203124999995
2023-03-21T16:50:47.000Z,14.197265625
2023-03-21T16:53:37.000Z,12.908203124999995
2023-03-21T16:56:47.000Z,12.5859375
2023-03-21T17:00:08.000Z,12.5859375
2023-03-21T17:02:49.000Z,12.908203124999995
2023-03-21T17:05:31.000Z,12.908203124999995
2023-03-21T17:08:08.000Z,12.5859375
2023-03-21T17:10:52.000Z,13.230468750000002
2023-03-21T17:13:36.000Z,12.908203124999995
2023-03-21T17:16:17.000Z,12.5859375
2023-03-21T17:19:00.000Z,12.908203124999995
2023-03-21T17:21:46.000Z,12.5859375
2023-03-21T17:24:30.000Z,12.5859375
2023-03-21T17:27:11.000Z,12.263671875000004
2023-03-21T17:29:50.000Z,11.296874999999995
2023-03-21T17:32:33.000Z,13.230468750000002
2023-03-21T17:35:16.000Z,11.941406249999996
2023-03-21T17:37:59.000Z,13.552734374999996
2023-03-21T17:40:42.000Z,10.974609375
2023-03-21T17:43:23.000Z,11.296874999999995
2023-03-21T17:46:06.000Z,11.619140625000002
2023-03-21T17:48:49.000Z,11.619140625000002
2023-03-21T17:51:35.000Z,11.941406249999996
2023-03-21T17:54:17.000Z,12.5859375
2023-03-21T17:57:01.000Z,11.941406249999996
2023-03-21T17:59:45.000Z,12.263671875000004
2023-03-21T18:02:29.000Z,12.908203124999995
2023-03-21T18:05:13.000Z,12.263671875000004
2023-03-21T18:07:56.000Z,12.5859375
2023-03-21T18:10:39.000Z,10.007812500000002
2023-03-21T18:13:21.000Z,13.874999999999993
2023-03-21T18:16:03.000Z,12.263671875000004
2023-03-21T18:18:45.000Z,11.941406249999996
2023-03-21T18:21:26.000Z,11.941406249999996
2023-03-21T18:24:11.000Z,12.908203124999995
2023-03-21T18:27:01.000Z,11.296874999999995
2023-03-21T18:29:48.000Z,12.5859375
2023-03-21T18:32:30.000Z,13.230468750000002
2023-03-21T18:35:13.000Z,12.908203124999995
2023-03-21T18:37:55.000Z,12.263671875000004
2023-03-21T18:40:36.000Z,12.263671875000004
2023-03-21T18:43:17.000Z,11.941406249999996
2023-03-21T18:45:57.000Z,11.296874999999995
2023-03-21T18:48:39.000Z,9.685546874999995
2023-03-21T18:51:20.000Z,11.941406249999996
2023-03-21T18:54:03.000Z,11.619140625000002
2023-03-21T18:56:45.000Z,11.619140625000002
2023-03-21T18:59:26.000Z,10.974609375
2023-03-21T19:02:08.000Z,11.941406249999996
2023-03-21T19:04:51.000Z,12.5859375
2023-03-21T19:07:33.000Z,10.974609375
2023-03-21T19:10:17.000Z,11.296874999999995
2023-03-21T19:13:05.000Z,11.619140625000002
2023-03-21T19:15:48.000Z,12.263671875000004
2023-03-21T19:18:32.000Z,11.941406249999996
2023-03-21T19:21:21.000Z,11.296874999999995
2023-03-21T19:24:08.000Z,10.007812500000002
2023-03-21T19:26:51.000Z,11.619140625000002
2023-03-21T19:29:33.000Z,10.974609375
2023-03-21T19:32:15.000Z,11.941406249999996
2023-03-21T19:35:00.000Z,9.685546874999995
2023-03-21T19:37:42.000Z,11.619140625000002
2023-03-21T19:40:26.000Z,10.652343750000004
2023-03-21T19:43:08.000Z,8.718749999999996
2023-03-21T19:45:56.000Z,11.296874999999995
2023-03-21T19:48:38.000Z,10.974609375
2023-03-21T19:51:21.000Z,13.230468750000002
2023-03-21T19:54:07.000Z,10.974609375
2023-03-21T19:56:52.000Z,11.296874999999995
2023-03-21T19:59:34.000Z,10.974609375
2023-03-21T20:02:20.000Z,9.36328125
2023-03-21T20:05:08.000Z,11.619140625000002
2023-03-21T20:07:54.000Z,11.619140625000002
2023-03-21T20:10:39.000Z,11.296874999999995
2023-03-21T20:13:25.000Z,11.619140625000002
2023-03-21T20:16:16.000Z,12.263671875000004
2023-03-21T20:19:03.000Z,10.007812500000002
2023-03-21T20:21:48.000Z,12.263671875000004
2023-03-21T20:24:33.000Z,11.296874999999995
2023-03-21T20:27:17.000Z,11.941406249999996
2023-03-21T20:30:02.000Z,10.007812500000002
2023-03-21T20:32:48.000Z,10.974609375
2023-03-21T20:35:35.000Z,10.652343750000004
2023-03-21T20:38:20.000Z,10.652343750000004
2023-03-21T20:41:06.000Z,10.974609375
2023-03-21T20:43:52.000Z,10.974609375
2023-03-21T20:46:35.000Z,11.941406249999996
2023-03-21T20:49:19.000Z,10.007812500000002
2023-03-21T20:52:02.000Z,10.974609375
2023-03-21T20:54:46.000Z,10.974609375
2023-03-21T20:57:32.000Z,10.652343750000004
2023-03-21T21:00:17.000Z,10.330078124999996
2023-03-21T21:02:59.000Z,11.619140625000002
2023-03-21T21:05:44.000Z,11.941406249999996
2023-03-21T21:08:30.000Z,10.007812500000002
2023-03-21T21:11:13.000Z,9.36328125
2023-03-21T21:13:57.000Z,10.652343750000004
2023-03-21T21:16:43.000Z,9.36328125
2023-03-21T21:19:27.000Z,10.974609375
2023-03-21T21:22:10.000Z,10.652343750000004
2023-03-21T21:24:55.000Z,11.296874999999995
2023-03-21T21:27:41.000Z,9.36328125
2023-03-21T21:30:26.000Z,12.263671875000004
2023-03-21T21:33:11.000Z,11.941406249999996
2023-03-21T21:35:55.000Z,10.974609375
2023-03-21T21:38:43.000Z,8.718749999999996
2023-03-21T21:41:26.000Z,10.974609375
2023-03-21T21:44:08.000Z,10.652343750000004
2023-03-21T21:46:54.000Z,10.652343750000004
2023-03-21T21:49:37.000Z,10.974609375
2023-03-21T21:52:20.000Z,9.36328125
2023-03-21T21:55:06.000Z,10.974609375
2023-03-21T21:57:52.000Z,10.974609375
2023-03-21T22:00:36.000Z,10.652343750000004
2023-03-21T22:03:20.000Z,10.974609375
2023-03-21T22:06:04.000Z,9.041015625000004
2023-03-21T22:08:47.000Z,11.941406249999996
2023-03-21T22:11:32.000Z,10.652343750000004
2023-03-21T22:14:18.000Z,10.330078124999996
2023-03-21T22:17:04.000Z,10.652343750000004
2023-03-21T22:19:47.000Z,11.619140625000002
2023-03-21T22:22:33.000Z,10.330078124999996
2023-03-21T22:25:17.000Z,12.5859375
2023-03-21T22:28:00.000Z,9.36328125
2023-03-21T22:30:45.000Z,11.619140625000002
2023-03-21T22:33:31.000Z,10.652343750000004
2023-03-21T22:36:13.000Z,10.330078124999996
2023-03-21T22:38:58.000Z,11.941406249999996
2023-03-21T22:41:44.000Z,10.652343750000004
2023-03-21T22:44:26.000Z,10.652343750000004
2023-03-21T22:47:09.000Z,10.007812500000002
2023-03-21T22:49:54.000Z,10.652343750000004
2023-03-21T22:52:39.000Z,9.36328125
2023-03-21T22:55:27.000Z,10.007812500000002
2023-03-21T22:58:11.000Z,10.974609375
2023-03-21T23:00:57.000Z,10.652343750000004
2023-03-21T23:03:40.000Z,11.619140625000002
2023-03-21T23:06:26.000Z,9.685546874999995
2023-03-21T23:09:08.000Z,10.330078124999996
2023-03-21T23:11:52.000Z,10.330078124999996
2023-03-21T23:14:36.000Z,12.908203124999995
2023-03-21T23:17:20.000Z,9.685546874999995
2023-03-21T23:20:03.000Z,10.007812500000002
2023-03-21T23:22:46.000Z,10.330078124999996
2023-03-21T23:25:32.000Z,9.041015625000004
2023-03-21T23:28:15.000Z,10.974609375
2023-03-21T23:30:59.000Z,8.718749999999996
2023-03-21T23:33:42.000Z,9.685546874999995
2023-03-21T23:36:26.000Z,9.685546874999995
2023-03-21T23:39:08.000Z,7.751953125
2023-03-21T23:41:53.000Z,9.041015625000004
2023-03-21T23:44:36.000Z,11.296874999999995
2023-03-21T23:47:19.000Z,9.041015625000004
2023-03-21T23:50:01.000Z,9.36328125
2023-03-21T23:52:45.000Z,9.041015625000004
2023-03-21T23:55:30.000Z,9.041015625000004
2023-03-21T23:58:14.000Z,7.751953125
